Time;durP1;ratioP1;P1;durP2;ratioP2;P2;SDS_P1;SDS_P2;PMS_P1;PMS_P2;Temp;Humidity;BMP_temperature;BMP_pressure;BME280_temperature;BME280_humidity;BME280_pressure;Samples;Min_cycle;Max_cycle;Signal;HPM_P1;HPM_P2
2022/06/17 00:02:14;;;;;;;;;;;;;;;21.67;100.00;99384.47;5055462;28;20406;-80
2022/06/17 00:04:42;;;;;;;;;;;;;;;21.52;100.00;99372.34;5090375;28;19925;-80
2022/06/17 00:07:12;;;;;;;;;;;;;;;21.17;100.00;99386.44;5089035;28;19924;-80
2022/06/17 00:09:40;;;;;;;;;;;;;;;20.91;100.00;99376.84;5098608;28;20454;-80
2022/06/17 00:12:11;;;;;;;;;;;;;;;21.12;100.00;99381.41;5104322;28;20014;-80
2022/06/17 00:17:25;;;;;;;;;;;;;;;20.94;100.00;99376.66;5096513;28;19935;-80
2022/06/17 00:19:53;;;;;;;;;;;;;;;20.42;100.00;99383.03;5079149;28;19947;-80
2022/06/17 00:22:20;;;;;;;;;;;;;;;20.92;100.00;99384.06;5096814;28;19924;-80
2022/06/17 00:24:50;;;;;;;;;;;;;;;20.87;100.00;99387.59;5095511;28;19993;-80
2022/06/17 00:27:18;;;;;;;;;;;;;;;21.03;100.00;99385.13;5095369;28;19925;-80
2022/06/17 00:29:46;;;;;;;;;;;;;;;20.82;100.00;99389.06;5096602;28;20314;-80
2022/06/17 00:32:14;;;;;;;;;;;;;;;20.17;100.00;99392.00;5095151;28;19967;-80
2022/06/17 00:34:42;;;;;;;;;;;;;;;20.60;100.00;99384.97;5078703;28;19924;-80
2022/06/17 00:37:12;;;;;;;;;;;;;;;20.45;100.00;99381.25;5096391;28;19930;-80
2022/06/17 00:39:40;;;;;;;;;;;;;;;20.29;100.00;99381.69;5095381;28;19965;-80
2022/06/17 00:42:09;;;;;;;;;;;;;;;20.55;100.00;99380.75;5095074;28;19950;-80
2022/06/17 00:44:39;;;;;;;;;;;;;;;19.94;100.00;99389.09;5095172;28;19924;-80
2022/06/17 00:47:22;;;;;;;;;;;;;;;20.43;100.00;99386.66;5094817;28;19924;-80
2022/06/17 00:49:55;;;;;;;;;;;;;;;20.49;100.00;99384.72;5096163;28;20248;-80
2022/06/17 00:52:45;;;;;;;;;;;;;;;20.62;100.00;99388.88;5078513;28;19928;-80
2022/06/17 00:55:15;;;;;;;;;;;;;;;20.69;100.00;99393.44;5095023;28;19947;-80
2022/06/17 00:57:44;;;;;;;;;;;;;;;20.35;100.00;99385.44;5096113;28;19931;-81
2022/06/17 01:00:23;;;;;;;;;;;;;;;19.84;100.00;99396.06;5094580;28;19924;-80
2022/06/17 01:02:53;;;;;;;;;;;;;;;20.15;100.00;99388.06;5094879;28;19931;-80
2022/06/17 01:05:23;;;;;;;;;;;;;;;20.08;100.00;99388.41;5095994;28;19924;-80
2022/06/17 01:07:59;;;;;;;;;;;;;;;19.53;100.00;99399.94;5095753;28;19930;-80
2022/06/17 01:10:29;;;;;;;;;;;;;;;19.07;100.00;99384.22;5094703;28;19969;-80
2022/06/17 01:13:05;;;;;;;;;;;;;;;19.56;100.00;99384.03;5095667;28;19978;-80
2022/06/17 01:15:37;;;;;;;;;;;;;;;20.02;100.00;99384.66;5094196;28;20376;-80
2022/06/17 01:18:05;;;;;;;;;;;;;;;20.16;100.00;99389.66;5094479;28;19951;-80
2022/06/17 01:20:33;;;;;;;;;;;;;;;20.18;100.00;99387.09;5094396;28;19958;-80
2022/06/17 01:23:06;;;;;;;;;;;;;;;20.22;100.00;99371.47;5095481;28;19924;-80
2022/06/17 01:25:35;;;;;;;;;;;;;;;20.32;100.00;99369.38;5093268;28;19924;-80
2022/06/17 01:28:06;;;;;;;;;;;;;;;20.41;100.00;99366.47;5094069;28;19963;-80
2022/06/17 01:30:34;;;;;;;;;;;;;;;19.99;100.00;99374.25;5093858;28;19924;-80
2022/06/17 01:33:07;;;;;;;;;;;;;;;20.08;100.00;99377.84;5080526;28;19924;-80
2022/06/17 01:35:43;;;;;;;;;;;;;;;19.95;100.00;99373.66;5095248;28;20101;-80
2022/06/17 01:38:11;;;;;;;;;;;;;;;19.92;100.00;99374.63;5093923;28;20387;-80
2022/06/17 01:40:39;;;;;;;;;;;;;;;19.90;100.00;99379.97;5093875;28;20351;-80
2022/06/17 01:43:09;;;;;;;;;;;;;;;19.51;100.00;99365.63;5094645;28;19928;-80
2022/06/17 01:45:42;;;;;;;;;;;;;;;19.08;100.00;99374.50;5093900;28;19930;-80
2022/06/17 01:48:12;;;;;;;;;;;;;;;19.21;100.00;99372.25;5076702;28;19931;-80
2022/06/17 01:50:42;;;;;;;;;;;;;;;19.26;100.00;99363.13;5094011;28;19959;-80
2022/06/17 01:53:15;;;;;;;;;;;;;;;19.53;100.00;99359.47;5094838;28;20445;-80
2022/06/17 01:55:51;;;;;;;;;;;;;;;19.50;100.00;99361.22;5094915;28;20256;-80
2022/06/17 01:58:23;;;;;;;;;;;;;;;19.60;100.00;99348.56;5110421;28;19963;-80
2022/06/17 02:00:50;;;;;;;;;;;;;;;19.27;100.00;99338.44;5110347;28;20027;-80
2022/06/17 02:03:22;;;;;;;;;;;;;;;19.57;100.00;99337.41;5110444;28;19931;-80
2022/06/17 02:05:53;;;;;;;;;;;;;;;19.79;100.00;99331.50;5113767;28;20386;-80
2022/06/17 02:08:22;;;;;;;;;;;;;;;19.55;100.00;99326.53;5094564;28;19924;-80
2022/06/17 02:10:51;;;;;;;;;;;;;;;19.81;100.00;99324.09;5073220;28;20018;-80
2022/06/17 02:13:19;;;;;;;;;;;;;;;19.95;100.00;99322.59;5089563;28;19935;-80
2022/06/17 02:16:05;;;;;;;;;;;;;;;19.85;100.00;99329.56;5088028;28;20290;-80
2022/06/17 02:18:53;;;;;;;;;;;;;;;19.83;100.00;99317.94;5093149;28;19995;-80
2022/06/17 02:21:26;;;;;;;;;;;;;;;19.71;100.00;99319.72;5093279;28;19974;-80
2022/06/17 02:23:55;;;;;;;;;;;;;;;19.36;100.00;99333.53;5094375;28;19924;-80
2022/06/17 02:26:23;;;;;;;;;;;;;;;18.47;100.00;99332.34;5093220;28;20298;-80
2022/06/17 02:28:51;;;;;;;;;;;;;;;18.84;100.00;99336.75;5094293;28;19931;-80
2022/06/17 02:31:21;;;;;;;;;;;;;;;19.02;100.00;99336.72;5093245;28;19932;-80
2022/06/17 02:33:51;;;;;;;;;;;;;;;18.82;100.00;99333.63;5094225;28;19924;-80
2022/06/17 02:36:29;;;;;;;;;;;;;;;18.82;100.00;99321.50;5093693;28;19931;-80
2022/06/17 02:38:59;;;;;;;;;;;;;;;18.63;100.00;99337.69;5093010;28;19924;-80
2022/06/17 02:41:28;;;;;;;;;;;;;;;18.76;100.00;99329.84;5108412;28;19924;-80
2022/06/17 02:43:59;;;;;;;;;;;;;;;19.04;100.00;99327.75;5114455;28;20022;-80
2022/06/17 02:46:38;;;;;;;;;;;;;;;18.97;100.00;99323.22;5114345;28;20344;-80
2022/06/17 02:49:14;;;;;;;;;;;;;;;19.22;100.00;99325.69;5113352;28;19928;-80
2022/06/17 02:51:44;;;;;;;;;;;;;;;19.15;100.00;99320.34;5113197;28;20026;-80
2022/06/17 02:54:16;;;;;;;;;;;;;;;19.16;100.00;99324.75;5114541;28;19924;-80
2022/06/17 02:56:48;;;;;;;;;;;;;;;19.18;100.00;99316.56;5114048;28;19930;-80
2022/06/17 02:59:20;;;;;;;;;;;;;;;18.66;100.00;99319.00;5096559;28;19924;-80
2022/06/17 03:01:51;;;;;;;;;;;;;;;18.87;100.00;99312.38;5113879;28;19977;-80
2022/06/17 03:04:33;;;;;;;;;;;;;;;18.26;100.00;99313.44;5113199;28;19928;-80
2022/06/17 03:07:11;;;;;;;;;;;;;;;18.62;100.00;99310.66;5113049;28;19924;-80
2022/06/17 03:09:38;;;;;;;;;;;;;;;18.64;100.00;99313.81;5113187;28;19973;-80
2022/06/17 03:12:12;;;;;;;;;;;;;;;18.17;100.00;99309.81;5112726;28;19934;-80
2022/06/17 03:14:59;;;;;;;;;;;;;;;18.01;100.00;99312.94;5112985;28;20252;-80
2022/06/17 03:17:29;;;;;;;;;;;;;;;18.61;100.00;99306.25;5096039;28;19924;-80
2022/06/17 03:19:58;;;;;;;;;;;;;;;18.60;100.00;99304.69;5114075;28;20000;-80
2022/06/17 03:22:27;;;;;;;;;;;;;;;18.79;100.00;99294.94;5113113;28;19924;-80
2022/06/17 03:25:09;;;;;;;;;;;;;;;18.40;100.00;99307.22;5113031;28;20267;-80
2022/06/17 03:27:57;;;;;;;;;;;;;;;18.82;100.00;99293.19;5079063;28;20267;-80
2022/06/17 03:30:30;;;;;;;;;;;;;;;18.48;100.00;99293.53;5084074;28;19992;-80
2022/06/17 03:33:04;;;;;;;;;;;;;;;18.87;100.00;99296.16;5094905;28;19924;-79
2022/06/17 03:35:34;;;;;;;;;;;;;;;18.97;100.00;99289.25;5096836;28;19932;-80
2022/06/17 03:38:12;;;;;;;;;;;;;;;18.09;100.00;99283.88;5096182;28;19924;-80
2022/06/17 03:40:41;;;;;;;;;;;;;;;17.91;100.00;99284.63;5097482;28;20299;-80
2022/06/17 03:43:15;;;;;;;;;;;;;;;18.34;100.00;99279.97;5105857;28;19924;-80
2022/06/17 03:46:05;;;;;;;;;;;;;;;18.29;100.00;99272.09;5110446;28;19928;-80
2022/06/17 03:49:07;;;;;;;;;;;;;;;18.40;100.00;99284.56;5091151;28;19916;-80
2022/06/17 03:51:40;;;;;;;;;;;;;;;18.39;100.00;99277.31;5108128;27;19924;-80
2022/06/17 03:54:15;;;;;;;;;;;;;;;18.46;100.00;99271.38;5073085;28;19925;-80
2022/06/17 03:56:45;;;;;;;;;;;;;;;18.60;100.00;99281.28;5091253;28;19924;-80
2022/06/17 03:59:23;;;;;;;;;;;;;;;18.34;100.00;99269.47;5090080;28;19928;-80
2022/06/17 04:01:56;;;;;;;;;;;;;;;18.37;100.00;99273.38;5105894;28;19924;-80
2022/06/17 04:04:26;;;;;;;;;;;;;;;18.36;100.00;99264.09;5089622;28;20372;-80
2022/06/17 04:06:56;;;;;;;;;;;;;;;17.93;100.00;99282.09;5090934;28;20315;-80
2022/06/17 04:09:31;;;;;;;;;;;;;;;18.41;100.00;99279.69;5107948;28;19931;-80
2022/06/17 04:12:00;;;;;;;;;;;;;;;18.52;100.00;99286.47;5070981;28;19924;-80
2022/06/17 04:14:35;;;;;;;;;;;;;;;17.97;100.00;99290.44;5056644;28;19925;-80
2022/06/17 04:17:12;;;;;;;;;;;;;;;18.02;100.00;99286.22;5073013;28;19924;-80
2022/06/17 04:19:46;;;;;;;;;;;;;;;18.48;100.00;99291.47;5123325;27;20367;-80
2022/06/17 04:22:19;;;;;;;;;;;;;;;18.45;100.00;99286.75;5070547;28;20540;-80
2022/06/17 04:25:11;;;;;;;;;;;;;;;18.26;100.00;99285.16;5090778;28;19925;-80
2022/06/17 04:27:59;;;;;;;;;;;;;;;17.92;100.00;99285.41;5089391;28;19931;-80
2022/06/17 04:30:35;;;;;;;;;;;;;;;18.56;100.00;99294.78;5072504;28;19930;-80
2022/06/17 04:33:08;;;;;;;;;;;;;;;18.03;100.00;99294.22;5072288;28;19931;-80
2022/06/17 04:35:36;;;;;;;;;;;;;;;18.38;100.00;99294.78;5089416;28;19966;-80
2022/06/17 04:38:04;;;;;;;;;;;;;;;18.54;100.00;99294.47;5105968;28;20606;-80
2022/06/17 04:40:55;;;;;;;;;;;;;;;18.34;100.00;99296.94;5089383;28;19932;-80
2022/06/17 04:43:47;;;;;;;;;;;;;;;18.56;100.00;99287.06;5090343;28;20372;-80
2022/06/17 04:46:22;;;;;;;;;;;;;;;18.78;100.00;99279.19;5089290;28;19946;-80
2022/06/17 04:48:57;;;;;;;;;;;;;;;17.94;100.00;99280.88;5071906;28;19981;-80
2022/06/17 04:51:26;;;;;;;;;;;;;;;18.56;100.00;99272.94;5088048;28;19994;-80
2022/06/17 04:53:56;;;;;;;;;;;;;;;18.10;100.00;99279.78;5089081;28;19967;-80
2022/06/17 04:56:54;;;;;;;;;;;;;;;17.75;100.00;99282.06;5067191;28;19924;-80
2022/06/17 04:59:40;;;;;;;;;;;;;;;18.24;100.00;99289.69;5059449;28;20459;-80
2022/06/17 05:02:13;;;;;;;;;;;;;;;18.35;100.00;99284.38;5037659;28;19990;-80
2022/06/17 05:05:16;;;;;;;;;;;;;;;18.76;100.00;99289.41;4957330;28;19926;-80
2022/06/17 05:07:46;;;;;;;;;;;;;;;18.99;100.00;99278.19;4955509;29;19949;-80
2022/06/17 05:10:41;;;;;;;;;;;;;;;19.06;100.00;99280.72;4927236;29;19978;-80
2022/06/17 05:13:18;;;;;;;;;;;;;;;17.85;100.00;99291.38;4958921;28;19926;-79
2022/06/17 05:15:46;;;;;;;;;;;;;;;18.17;100.00;99281.53;4929620;28;20326;-79
2022/06/17 05:18:14;;;;;;;;;;;;;;;18.34;100.00;99274.31;4959085;28;19926;-82
2022/06/17 05:20:42;;;;;;;;;;;;;;;18.40;100.00;99275.28;4959099;28;20393;-82
2022/06/17 05:23:12;;;;;;;;;;;;;;;18.48;100.00;99280.16;4953489;28;20326;-80
2022/06/17 05:25:44;;;;;;;;;;;;;;;18.63;100.00;99275.44;4933818;28;20291;-85
2022/06/17 05:28:19;;;;;;;;;;;;;;;18.87;100.00;99273.50;4923491;29;20009;-86
2022/06/17 05:30:52;;;;;;;;;;;;;;;18.43;100.00;99261.00;4916452;29;20394;-87
2022/06/17 05:33:24;;;;;;;;;;;;;;;18.12;100.00;99259.50;4933962;28;20376;-85
2022/06/17 05:35:52;;;;;;;;;;;;;;;18.00;100.00;99261.25;4978246;28;19925;-85
2022/06/17 05:38:21;;;;;;;;;;;;;;;18.77;100.00;99271.97;4962900;28;20516;-85
2022/06/17 05:40:49;;;;;;;;;;;;;;;18.47;100.00;99267.28;5033133;28;19931;-85
2022/06/17 05:43:16;;;;;;;;;;;;;;;18.88;100.00;99262.97;5041838;28;19935;-85
2022/06/17 05:45:44;;;;;;;;;;;;;;;19.20;100.00;99263.06;5058147;28;19925;-86
2022/06/17 05:48:28;;;;;;;;;;;;;;;19.44;100.00;99263.94;5091312;28;19924;-87
2022/06/17 05:51:09;;;;;;;;;;;;;;;19.64;100.00;99269.06;5090070;28;19931;-85
2022/06/17 05:53:51;;;;;;;;;;;;;;;19.95;100.00;99263.06;5063599;28;19928;-87
2022/06/17 05:56:36;;;;;;;;;;;;;;;20.08;100.00;99258.72;5088635;28;19932;-87
2022/06/17 05:59:05;;;;;;;;;;;;;;;19.91;100.00;99254.72;5067667;28;20310;-84
2022/06/17 06:01:32;;;;;;;;;;;;;;;20.37;100.00;99253.13;5057542;28;20041;-84
2022/06/17 06:03:59;;;;;;;;;;;;;;;20.55;100.00;99240.88;5040880;28;19925;-84
2022/06/17 06:06:27;;;;;;;;;;;;;;;20.77;100.00;99221.41;5057319;28;19930;-84
2022/06/17 06:08:56;;;;;;;;;;;;;;;20.63;100.00;99219.34;5057371;28;20383;-84
2022/06/17 06:11:24;;;;;;;;;;;;;;;21.05;100.00;99217.03;5039987;28;20336;-84
2022/06/17 06:13:52;;;;;;;;;;;;;;;21.20;100.00;99212.13;5041004;28;19936;-84
2022/06/17 06:16:20;;;;;;;;;;;;;;;20.76;100.00;99200.75;5024787;28;19931;-84
2022/06/17 06:18:56;;;;;;;;;;;;;;;20.81;100.00;99197.22;5025391;28;20422;-84
2022/06/17 06:21:26;;;;;;;;;;;;;;;21.39;100.00;99197.19;5040501;28;20010;-84
2022/06/17 06:23:56;;;;;;;;;;;;;;;21.65;100.00;99185.94;5040943;28;19928;-84
2022/06/17 06:26:30;;;;;;;;;;;;;;;20.99;100.00;99196.28;5057192;28;20016;-84
2022/06/17 06:29:14;;;;;;;;;;;;;;;21.20;100.00;99195.84;5040633;28;20028;-84
2022/06/17 06:31:44;;;;;;;;;;;;;;;21.40;100.00;99197.97;5024391;28;19931;-84
2022/06/17 06:34:31;;;;;;;;;;;;;;;21.35;100.00;99207.19;5056771;28;19977;-84
2022/06/17 06:37:00;;;;;;;;;;;;;;;21.56;100.00;99203.13;5073701;28;20476;-84
2022/06/17 06:39:29;;;;;;;;;;;;;;;21.32;100.00;99180.56;5057013;28;20303;-84
2022/06/17 06:41:59;;;;;;;;;;;;;;;21.63;100.00;99170.66;5040933;28;19931;-84
2022/06/17 06:44:27;;;;;;;;;;;;;;;21.66;100.00;99176.09;5024195;28;20380;-84
2022/06/17 06:47:01;;;;;;;;;;;;;;;21.81;100.00;99182.56;5057559;28;19925;-84
2022/06/17 06:49:58;;;;;;;;;;;;;;;21.41;100.00;99182.47;5054955;28;19974;-84
2022/06/17 06:52:26;;;;;;;;;;;;;;;21.31;100.00;99178.97;5090163;28;20324;-84
2022/06/17 06:54:54;;;;;;;;;;;;;;;21.52;100.00;99188.34;5056752;28;19924;-85
2022/06/17 06:57:22;;;;;;;;;;;;;;;21.49;100.00;99195.00;5040232;28;19960;-85
2022/06/17 07:00:04;;;;;;;;;;;;;;;21.48;100.00;99187.75;5040124;28;19939;-85
2022/06/17 07:02:33;;;;;;;;;;;;;;;21.50;100.00;99185.19;5056496;28;19925;-85
2022/06/17 07:05:00;;;;;;;;;;;;;;;21.66;100.00;99176.09;5056526;28;19955;-85
2022/06/17 07:07:29;;;;;;;;;;;;;;;21.75;100.00;99178.84;5023324;28;20447;-85
2022/06/17 07:09:57;;;;;;;;;;;;;;;21.72;100.00;99176.97;5056357;28;19962;-79
2022/06/17 07:12:24;;;;;;;;;;;;;;;21.60;100.00;99180.94;5074215;28;19925;-79
2022/06/17 07:14:52;;;;;;;;;;;;;;;21.78;100.00;99183.53;5073387;28;20028;-80
2022/06/17 07:17:19;;;;;;;;;;;;;;;21.79;100.00;99172.97;5039232;28;19932;-80
2022/06/17 07:19:47;;;;;;;;;;;;;;;21.97;100.00;99172.69;5056612;28;19974;-79
2022/06/17 07:22:14;;;;;;;;;;;;;;;21.97;100.00;99170.63;5056275;28;19925;-80
2022/06/17 07:24:42;;;;;;;;;;;;;;;21.99;100.00;99159.50;5056625;28;19952;-85
2022/06/17 07:27:10;;;;;;;;;;;;;;;22.22;100.00;99155.66;5056246;28;20008;-80
2022/06/17 07:29:37;;;;;;;;;;;;;;;22.84;100.00;99150.09;5074188;28;20382;-80
2022/06/17 07:32:05;;;;;;;;;;;;;;;23.01;100.00;99141.69;5089908;28;19924;-80
2022/06/17 07:34:33;;;;;;;;;;;;;;;23.29;100.00;99136.22;5074150;28;19925;-79
2022/06/17 07:39:55;;;;;;;;;;;;;;;23.63;100.00;99129.44;5073777;28;19928;-79
2022/06/17 07:42:24;;;;;;;;;;;;;;;23.54;100.00;99123.97;5073797;28;19925;-79
2022/06/17 07:44:55;;;;;;;;;;;;;;;23.46;100.00;99120.78;5056143;28;19934;-79
2022/06/17 07:47:23;;;;;;;;;;;;;;;23.85;100.00;99120.97;5048842;28;20381;-79
2022/06/17 07:49:51;;;;;;;;;;;;;;;23.99;100.00;99123.66;5033871;28;19932;-79
2022/06/17 07:52:19;;;;;;;;;;;;;;;24.11;100.00;99113.06;5032575;28;19925;-79
2022/06/17 07:54:49;;;;;;;;;;;;;;;25.00;100.00;99114.78;5033769;28;19925;-79
2022/06/17 07:57:18;;;;;;;;;;;;;;;25.34;100.00;99118.41;5033711;28;19940;-79
2022/06/17 07:59:45;;;;;;;;;;;;;;;25.99;100.00;99120.28;5032075;28;20376;-80
2022/06/17 08:02:13;;;;;;;;;;;;;;;26.40;100.00;99112.53;5032439;28;19932;-79
2022/06/17 08:04:41;;;;;;;;;;;;;;;26.30;100.00;99119.88;5033817;28;19925;-80
2022/06/17 08:07:09;;;;;;;;;;;;;;;26.80;100.00;99110.19;5032669;28;19971;-79
2022/06/17 08:09:37;;;;;;;;;;;;;;;26.84;100.00;99107.81;5033664;28;20027;-79
2022/06/17 08:12:08;;;;;;;;;;;;;;;27.06;100.00;99107.63;5033651;28;19925;-80
2022/06/17 08:14:35;;;;;;;;;;;;;;;25.91;100.00;99096.38;5032245;28;19925;-79
2022/06/17 08:17:03;;;;;;;;;;;;;;;25.48;100.00;99106.66;5033804;28;19933;-79
2022/06/17 08:19:31;;;;;;;;;;;;;;;24.86;100.00;99098.66;5015931;28;19932;-79
2022/06/17 08:21:58;;;;;;;;;;;;;;;25.27;100.00;99091.06;5048874;28;19925;-79
2022/06/17 08:24:26;;;;;;;;;;;;;;;25.49;100.00;99085.31;5014988;28;20015;-79
2022/06/17 08:26:54;;;;;;;;;;;;;;;26.79;100.00;99088.56;5033059;28;20404;-79
2022/06/17 08:29:22;;;;;;;;;;;;;;;27.18;100.00;99074.66;5032244;28;19925;-79
2022/06/17 08:34:55;;;;;;;;;;;;;;;27.43;100.00;99073.38;5066570;28;20288;-79
2022/06/17 08:37:22;;;;;;;;;;;;;;;27.36;100.00;99082.56;5034831;28;19978;-79
2022/06/17 08:39:50;;;;;;;;;;;;;;;26.71;100.00;99082.63;5034908;28;19960;-79
2022/06/17 08:42:20;;;;;;;;;;;;;;;27.16;100.00;99083.03;5036222;28;19971;-79
2022/06/17 08:44:57;;;;;;;;;;;;;;;27.07;100.00;99074.75;5050930;28;19929;-79
2022/06/17 08:47:35;;;;;;;;;;;;;;;27.17;100.00;99070.25;5048979;28;19925;-79
2022/06/17 08:50:13;;;;;;;;;;;;;;;27.10;100.00;99074.47;5058049;28;19925;-79
2022/06/17 08:52:58;;;;;;;;;;;;;;;26.60;100.00;99059.00;5058295;28;20065;-79
2022/06/17 08:55:31;;;;;;;;;;;;;;;26.90;100.00;99072.03;5058052;28;19974;-79
2022/06/17 08:58:05;;;;;;;;;;;;;;;27.61;100.00;99082.03;5075744;28;19975;-79
2022/06/17 09:00:35;;;;;;;;;;;;;;;27.55;100.00;99060.47;5058170;28;19925;-79
2022/06/17 09:03:18;;;;;;;;;;;;;;;27.70;100.00;99064.44;5075660;28;19952;-79
2022/06/17 09:06:01;;;;;;;;;;;;;;;27.45;100.00;99056.38;5057807;28;19924;-79
2022/06/17 09:08:34;;;;;;;;;;;;;;;27.12;100.00;99053.84;5075564;28;19931;-79
2022/06/17 09:11:03;;;;;;;;;;;;;;;27.19;100.00;99059.00;5075776;28;19924;-79
2022/06/17 09:13:35;;;;;;;;;;;;;;;27.38;100.00;99054.91;5075226;28;20288;-79
2022/06/17 09:16:08;;;;;;;;;;;;;;;27.57;100.00;99060.69;5075454;28;19931;-79
2022/06/17 09:18:46;;;;;;;;;;;;;;;27.44;100.00;99057.72;5075415;28;19939;-79
2022/06/17 09:21:16;;;;;;;;;;;;;;;27.33;100.00;99041.41;5057748;28;19952;-79
2022/06/17 09:23:44;;;;;;;;;;;;;;;27.34;100.00;99050.81;5041063;28;19924;-79
2022/06/17 09:26:16;;;;;;;;;;;;;;;27.66;100.00;99046.75;5075251;28;20333;-79
2022/06/17 09:28:47;;;;;;;;;;;;;;;27.61;100.00;99036.09;5074892;28;19947;-79
2022/06/17 09:31:26;;;;;;;;;;;;;;;28.08;100.00;99037.31;5075020;28;19959;-79
2022/06/17 09:34:12;;;;;;;;;;;;;;;28.55;100.00;99029.06;5075161;28;19924;-79
2022/06/17 09:36:45;;;;;;;;;;;;;;;28.48;100.00;99023.97;5075230;28;19925;-79
2022/06/17 09:39:17;;;;;;;;;;;;;;;28.57;100.00;99037.91;5090632;28;19929;-79
2022/06/17 09:41:45;;;;;;;;;;;;;;;28.19;100.00;99024.91;5074746;28;19930;-79
2022/06/17 09:44:16;;;;;;;;;;;;;;;27.82;100.00;99034.25;5075221;28;19925;-79
2022/06/17 09:46:47;;;;;;;;;;;;;;;27.66;100.00;99031.59;5074440;28;19924;-80
2022/06/17 09:49:19;;;;;;;;;;;;;;;27.93;100.00;99027.66;5057337;28;19954;-79
2022/06/17 09:51:51;;;;;;;;;;;;;;;28.41;100.00;99038.16;5057032;28;19971;-79
2022/06/17 09:54:37;;;;;;;;;;;;;;;28.53;100.00;99031.72;5074832;28;20458;-79
2022/06/17 09:57:26;;;;;;;;;;;;;;;28.66;100.00;99025.25;5056385;28;20296;-79
2022/06/17 10:00:03;;;;;;;;;;;;;;;28.59;100.00;99037.38;5057163;28;19924;-79
2022/06/17 10:02:34;;;;;;;;;;;;;;;28.19;100.00;99027.78;5074573;28;19925;-79
2022/06/17 10:05:12;;;;;;;;;;;;;;;27.81;100.00;99017.56;5056702;28;19925;-79
2022/06/17 10:07:46;;;;;;;;;;;;;;;27.81;100.00;99017.56;5074556;28;19925;-79
2022/06/17 10:10:21;;;;;;;;;;;;;;;27.58;100.00;99022.84;5074321;28;20368;-79
2022/06/17 10:13:07;;;;;;;;;;;;;;;27.72;100.00;99012.22;5074225;28;19932;-79
2022/06/17 10:18:31;;;;;;;;;;;;;;;27.30;100.00;99038.81;5074218;28;19924;-79
2022/06/17 10:18:50;;;;;;;;;;;;;;;27.45;100.00;99031.34;5056426;28;19959;-79
2022/06/17 10:21:26;;;;;;;;;;;;;;;27.84;100.00;99036.59;5033826;28;20451;-79
2022/06/17 10:24:03;;;;;;;;;;;;;;;27.86;100.00;99029.03;5074096;28;19925;-79
2022/06/17 10:26:41;;;;;;;;;;;;;;;27.57;100.00;99021.28;5073664;28;19978;-79
2022/06/17 10:29:27;;;;;;;;;;;;;;;27.83;100.00;99010.00;5089650;28;19935;-79
2022/06/17 10:31:55;;;;;;;;;;;;;;;27.85;100.00;99018.81;5073032;28;19995;-79
2022/06/17 10:34:29;;;;;;;;;;;;;;;28.08;100.00;99007.84;5056541;28;19955;-79
2022/06/17 10:36:59;;;;;;;;;;;;;;;27.78;100.00;98996.47;5073743;28;19954;-79
2022/06/17 10:39:28;;;;;;;;;;;;;;;27.90;100.00;98994.28;5089163;28;19925;-79
2022/06/17 10:41:57;;;;;;;;;;;;;;;27.49;100.00;98988.78;5073780;28;19925;-79
2022/06/17 10:44:26;;;;;;;;;;;;;;;27.84;100.00;98997.19;5055857;28;20376;-79
2022/06/17 10:46:59;;;;;;;;;;;;;;;27.93;100.00;98999.69;5089063;28;19925;-79
2022/06/17 10:49:40;;;;;;;;;;;;;;;27.58;100.00;98994.13;5073707;28;19994;-79
2022/06/17 10:52:19;;;;;;;;;;;;;;;28.33;100.00;98999.88;5073546;28;19954;-79
2022/06/17 10:54:48;;;;;;;;;;;;;;;28.76;100.00;98991.88;5073206;28;19978;-79
2022/06/17 10:57:26;;;;;;;;;;;;;;;28.44;100.00;98994.75;5073202;28;20007;-79
2022/06/17 10:59:54;;;;;;;;;;;;;;;28.43;100.00;98998.91;5073627;28;19926;-79
2022/06/17 11:02:23;;;;;;;;;;;;;;;28.78;100.00;98997.84;5073266;28;19932;-79
2022/06/17 11:04:54;;;;;;;;;;;;;;;28.37;100.00;98994.59;5073234;28;19924;-79
2022/06/17 11:07:27;;;;;;;;;;;;;;;28.81;100.00;98988.13;5073389;28;20467;-79
2022/06/17 11:10:16;;;;;;;;;;;;;;;28.94;100.00;98974.53;5072994;28;19931;-79
2022/06/17 11:12:55;;;;;;;;;;;;;;;28.90;100.00;98979.84;5073167;28;20436;-79
2022/06/17 11:15:22;;;;;;;;;;;;;;;28.34;100.00;98973.47;5055660;28;19973;-79
2022/06/17 11:17:52;;;;;;;;;;;;;;;28.19;100.00;98978.94;5055717;28;19963;-79
2022/06/17 11:20:21;;;;;;;;;;;;;;;28.01;100.00;98983.41;5088717;28;19929;-79
2022/06/17 11:23:14;;;;;;;;;;;;;;;27.65;100.00;98975.53;5055059;28;19931;-79
2022/06/17 11:25:42;;;;;;;;;;;;;;;27.56;100.00;98984.53;5073169;28;19947;-79
2022/06/17 11:28:33;;;;;;;;;;;;;;;27.44;100.00;98983.13;5073036;28;19925;-79
2022/06/17 11:31:02;;;;;;;;;;;;;;;27.58;100.00;98988.41;5073036;28;19924;-79
2022/06/17 11:33:38;;;;;;;;;;;;;;;27.95;100.00;98976.19;5072939;28;19935;-79
2022/06/17 11:36:16;;;;;;;;;;;;;;;27.89;100.00;98978.34;5073233;28;20410;-79
2022/06/17 11:38:44;;;;;;;;;;;;;;;27.96;100.00;98972.75;5072639;28;20003;-79
2022/06/17 11:41:28;;;;;;;;;;;;;;;28.39;100.00;98968.97;5056670;28;19924;-79
2022/06/17 11:43:56;;;;;;;;;;;;;;;28.51;100.00;98956.75;5072726;28;19959;-80
2022/06/17 11:46:26;;;;;;;;;;;;;;;29.16;100.00;98965.50;5055106;28;19960;-79
2022/06/17 11:48:58;;;;;;;;;;;;;;;29.58;100.00;98957.84;5031391;28;19929;-77
2022/06/17 11:51:31;;;;;;;;;;;;;;;29.39;100.00;98963.72;5048238;28;19925;-79
2022/06/17 11:54:05;;;;;;;;;;;;;;;29.18;100.00;98960.00;5031283;28;19926;-79
2022/06/17 11:56:34;;;;;;;;;;;;;;;28.98;100.00;98951.97;5032906;28;19925;-79
2022/06/17 11:59:08;;;;;;;;;;;;;;;28.63;100.00;98955.25;5032910;28;20012;-79
2022/06/17 12:01:35;;;;;;;;;;;;;;;28.30;100.00;98958.66;5032856;28;19925;-79
2022/06/17 12:04:03;;;;;;;;;;;;;;;28.64;100.00;98965.44;5064334;28;19925;-80
2022/06/17 12:06:46;;;;;;;;;;;;;;;28.75;100.00;98958.72;5015363;28;19925;-80
2022/06/17 12:09:22;;;;;;;;;;;;;;;28.34;100.00;98953.34;5034754;28;20016;-81
2022/06/17 12:11:52;;;;;;;;;;;;;;;28.50;100.00;98963.06;5036166;28;19925;-81
2022/06/17 12:14:26;;;;;;;;;;;;;;;28.39;100.00;98954.59;5037657;28;19936;-81
2022/06/17 12:16:55;;;;;;;;;;;;;;;28.83;100.00;98960.38;5052973;28;19979;-81
2022/06/17 12:19:41;;;;;;;;;;;;;;;28.41;100.00;98964.22;5037433;28;19925;-80
2022/06/17 12:22:28;;;;;;;;;;;;;;;28.51;100.00;98955.97;5037218;28;19925;-81
2022/06/17 12:25:06;;;;;;;;;;;;;;;28.60;100.00;98970.72;5037327;28;19990;-80
2022/06/17 12:27:36;;;;;;;;;;;;;;;28.88;100.00;98981.72;5037381;28;19979;-80
2022/06/17 12:30:28;;;;;;;;;;;;;;;28.55;100.00;98965.81;5069129;28;20015;-80
2022/06/17 12:33:00;;;;;;;;;;;;;;;28.71;100.00;98961.91;5037193;28;19925;-80
2022/06/17 12:35:38;;;;;;;;;;;;;;;28.87;100.00;98957.94;5052315;28;19939;-80
2022/06/17 12:38:05;;;;;;;;;;;;;;;28.93;100.00;98966.47;5037067;28;19925;-80
2022/06/17 12:40:37;;;;;;;;;;;;;;;28.92;100.00;98959.94;5037029;28;19925;-80
2022/06/17 12:43:20;;;;;;;;;;;;;;;29.09;100.00;98957.56;5036866;28;19925;-80
2022/06/17 12:45:58;;;;;;;;;;;;;;;29.12;100.00;98953.56;5068962;28;19925;-81
2022/06/17 12:48:49;;;;;;;;;;;;;;;29.37;100.00;98946.25;5062518;28;20300;-80
2022/06/17 12:54:19;;;;;;;;;;;;;;;29.34;100.00;98964.63;5076717;28;19947;-80
2022/06/17 12:56:49;;;;;;;;;;;;;;;29.50;100.00;98963.50;5076677;28;20018;-80
2022/06/17 12:59:43;;;;;;;;;;;;;;;29.38;100.00;98962.19;5076627;28;19924;-80
2022/06/17 13:02:12;;;;;;;;;;;;;;;28.87;100.00;98951.44;5062199;28;20287;-80
2022/06/17 13:04:47;;;;;;;;;;;;;;;28.72;100.00;98956.94;5041852;28;19925;-80
2022/06/17 13:07:17;;;;;;;;;;;;;;;29.23;100.00;98941.81;5076401;28;19970;-81
2022/06/17 13:09:44;;;;;;;;;;;;;;;29.34;100.00;98950.22;5076595;28;19925;-81
2022/06/17 13:12:23;;;;;;;;;;;;;;;28.82;100.00;98938.69;5092143;28;20384;-81
2022/06/17 13:15:07;;;;;;;;;;;;;;;28.96;100.00;98943.13;5058805;28;19929;-80
2022/06/17 13:17:47;;;;;;;;;;;;;;;28.67;100.00;98938.47;5058815;28;19932;-81
2022/06/17 13:20:21;;;;;;;;;;;;;;;28.86;100.00;98942.00;5057647;28;19925;-81